sensor_id;sensor_type;location;lat;lon;timestamp;P1;durP1;ratioP1;P2;durP2;ratioP2
15228;SDS011;7717;47.792;12.076;2023-07-13T00:01:26;4.70;;;2.20;;
15228;SDS011;7717;47.792;12.076;2023-07-13T00:03:59;2.97;;;2.43;;
15228;SDS011;7717;47.792;12.076;2023-07-13T00:06:25;3.17;;;2.40;;
15228;SDS011;7717;47.792;12.076;2023-07-13T00:08:50;2.90;;;2.60;;
15228;SDS011;7717;47.792;12.076;2023-07-13T00:11:16;2.43;;;1.80;;
15228;SDS011;7717;47.792;12.076;2023-07-13T00:13:42;3.23;;;2.60;;
15228;SDS011;7717;47.792;12.076;2023-07-13T00:16:09;2.67;;;2.27;;
15228;SDS011;7717;47.792;12.076;2023-07-13T00:18:36;2.70;;;2.07;;
15228;SDS011;7717;47.792;12.076;2023-07-13T00:21:02;1.93;;;1.83;;
15228;SDS011;7717;47.792;12.076;2023-07-13T00:23:36;2.60;;;2.37;;
15228;SDS011;7717;47.792;12.076;2023-07-13T00:26:04;4.43;;;1.93;;
15228;SDS011;7717;47.792;12.076;2023-07-13T00:28:32;2.13;;;2.00;;
15228;SDS011;7717;47.792;12.076;2023-07-13T00:31:04;2.27;;;1.90;;
15228;SDS011;7717;47.792;12.076;2023-07-13T00:33:30;2.03;;;1.93;;
15228;SDS011;7717;47.792;12.076;2023-07-13T00:35:56;2.40;;;1.90;;
15228;SDS011;7717;47.792;12.076;2023-07-13T00:38:22;3.77;;;1.87;;
15228;SDS011;7717;47.792;12.076;2023-07-13T00:40:48;3.83;;;2.00;;
15228;SDS011;7717;47.792;12.076;2023-07-13T00:43:18;1.80;;;1.70;;
15228;SDS011;7717;47.792;12.076;2023-07-13T00:48:12;1.90;;;1.80;;
15228;SDS011;7717;47.792;12.076;2023-07-13T00:50:40;1.60;;;1.50;;
15228;SDS011;7717;47.792;12.076;2023-07-13T00:53:07;1.63;;;1.53;;
15228;SDS011;7717;47.792;12.076;2023-07-13T00:55:33;1.60;;;1.50;;
15228;SDS011;7717;47.792;12.076;2023-07-13T00:57:59;1.43;;;1.33;;
15228;SDS011;7717;47.792;12.076;2023-07-13T01:00:24;2.10;;;1.37;;
15228;SDS011;7717;47.792;12.076;2023-07-13T01:02:51;1.77;;;1.67;;
15228;SDS011;7717;47.792;12.076;2023-07-13T01:05:18;2.93;;;1.90;;
15228;SDS011;7717;47.792;12.076;2023-07-13T01:07:45;1.63;;;1.53;;
15228;SDS011;7717;47.792;12.076;2023-07-13T01:10:14;3.23;;;2.30;;
15228;SDS011;7717;47.792;12.076;2023-07-13T01:12:40;2.33;;;1.80;;
15228;SDS011;7717;47.792;12.076;2023-07-13T01:15:32;2.87;;;1.60;;
15228;SDS011;7717;47.792;12.076;2023-07-13T01:18:10;2.23;;;1.70;;
15228;SDS011;7717;47.792;12.076;2023-07-13T01:20:37;3.90;;;2.20;;
15228;SDS011;7717;47.792;12.076;2023-07-13T01:23:05;2.03;;;1.77;;
15228;SDS011;7717;47.792;12.076;2023-07-13T01:25:32;2.40;;;1.80;;
15228;SDS011;7717;47.792;12.076;2023-07-13T01:27:57;1.90;;;1.80;;
15228;SDS011;7717;47.792;12.076;2023-07-13T01:30:23;5.17;;;1.90;;
15228;SDS011;7717;47.792;12.076;2023-07-13T01:32:49;1.70;;;1.60;;
15228;SDS011;7717;47.792;12.076;2023-07-13T01:35:14;3.63;;;1.93;;
15228;SDS011;7717;47.792;12.076;2023-07-13T01:37:41;1.90;;;1.80;;
15228;SDS011;7717;47.792;12.076;2023-07-13T01:40:07;3.67;;;2.10;;
15228;SDS011;7717;47.792;12.076;2023-07-13T01:42:33;2.33;;;2.13;;
15228;SDS011;7717;47.792;12.076;2023-07-13T01:44:59;2.70;;;1.93;;
15228;SDS011;7717;47.792;12.076;2023-07-13T01:47:24;3.43;;;2.30;;
15228;SDS011;7717;47.792;12.076;2023-07-13T01:49:51;2.70;;;2.37;;
15228;SDS011;7717;47.792;12.076;2023-07-13T01:52:16;4.27;;;2.17;;
15228;SDS011;7717;47.792;12.076;2023-07-13T01:54:45;5.77;;;2.27;;
15228;SDS011;7717;47.792;12.076;2023-07-13T01:57:10;2.30;;;2.10;;
15228;SDS011;7717;47.792;12.076;2023-07-13T01:59:35;3.43;;;2.60;;
15228;SDS011;7717;47.792;12.076;2023-07-13T02:02:01;3.23;;;2.17;;
15228;SDS011;7717;47.792;12.076;2023-07-13T02:04:26;3.57;;;2.20;;
15228;SDS011;7717;47.792;12.076;2023-07-13T02:06:52;3.53;;;2.47;;
15228;SDS011;7717;47.792;12.076;2023-07-13T02:09:17;2.90;;;2.70;;
15228;SDS011;7717;47.792;12.076;2023-07-13T02:11:46;2.40;;;2.20;;
15228;SDS011;7717;47.792;12.076;2023-07-13T02:14:11;3.00;;;2.77;;
15228;SDS011;7717;47.792;12.076;2023-07-13T02:16:37;3.83;;;2.47;;
15228;SDS011;7717;47.792;12.076;2023-07-13T02:19:02;4.37;;;2.50;;
15228;SDS011;7717;47.792;12.076;2023-07-13T02:21:31;3.27;;;2.97;;
15228;SDS011;7717;47.792;12.076;2023-07-13T02:23:56;3.23;;;2.97;;
15228;SDS011;7717;47.792;12.076;2023-07-13T02:26:22;3.37;;;3.07;;
15228;SDS011;7717;47.792;12.076;2023-07-13T02:28:48;3.53;;;2.63;;
15228;SDS011;7717;47.792;12.076;2023-07-13T02:31:14;2.80;;;2.60;;
15228;SDS011;7717;47.792;12.076;2023-07-13T02:33:40;3.80;;;2.73;;
15228;SDS011;7717;47.792;12.076;2023-07-13T02:36:06;4.53;;;2.53;;
15228;SDS011;7717;47.792;12.076;2023-07-13T02:38:33;3.13;;;2.53;;
15228;SDS011;7717;47.792;12.076;2023-07-13T02:41:00;3.37;;;2.83;;
15228;SDS011;7717;47.792;12.076;2023-07-13T02:43:26;3.50;;;2.40;;
15228;SDS011;7717;47.792;12.076;2023-07-13T02:45:52;3.10;;;2.70;;
15228;SDS011;7717;47.792;12.076;2023-07-13T02:48:21;4.23;;;2.63;;
15228;SDS011;7717;47.792;12.076;2023-07-13T02:50:46;2.50;;;2.30;;
15228;SDS011;7717;47.792;12.076;2023-07-13T02:53:12;3.13;;;2.50;;
15228;SDS011;7717;47.792;12.076;2023-07-13T02:55:37;2.90;;;2.60;;
15228;SDS011;7717;47.792;12.076;2023-07-13T02:58:04;4.37;;;2.37;;
15228;SDS011;7717;47.792;12.076;2023-07-13T03:00:30;2.70;;;2.50;;
15228;SDS011;7717;47.792;12.076;2023-07-13T03:02:56;2.80;;;2.60;;
15228;SDS011;7717;47.792;12.076;2023-07-13T03:05:23;3.07;;;2.43;;
15228;SDS011;7717;47.792;12.076;2023-07-13T03:07:49;4.67;;;2.83;;
15228;SDS011;7717;47.792;12.076;2023-07-13T03:10:15;2.63;;;2.43;;
15228;SDS011;7717;47.792;12.076;2023-07-13T03:12:41;2.47;;;2.27;;
15228;SDS011;7717;47.792;12.076;2023-07-13T03:15:07;3.00;;;2.70;;
15228;SDS011;7717;47.792;12.076;2023-07-13T03:17:32;3.57;;;2.30;;
15228;SDS011;7717;47.792;12.076;2023-07-13T03:19:58;2.83;;;1.83;;
15228;SDS011;7717;47.792;12.076;2023-07-13T03:22:23;2.43;;;2.17;;
15228;SDS011;7717;47.792;12.076;2023-07-13T03:24:49;2.47;;;2.03;;
15228;SDS011;7717;47.792;12.076;2023-07-13T03:27:15;3.87;;;2.00;;
15228;SDS011;7717;47.792;12.076;2023-07-13T03:29:42;1.80;;;1.70;;
15228;SDS011;7717;47.792;12.076;2023-07-13T03:32:07;2.00;;;1.90;;
15228;SDS011;7717;47.792;12.076;2023-07-13T03:34:33;2.73;;;2.13;;
15228;SDS011;7717;47.792;12.076;2023-07-13T03:36:58;2.37;;;2.17;;
15228;SDS011;7717;47.792;12.076;2023-07-13T03:39:23;4.23;;;2.40;;
15228;SDS011;7717;47.792;12.076;2023-07-13T03:41:52;3.13;;;2.17;;
15228;SDS011;7717;47.792;12.076;2023-07-13T03:44:18;2.23;;;2.00;;
15228;SDS011;7717;47.792;12.076;2023-07-13T03:46:44;2.23;;;2.03;;
15228;SDS011;7717;47.792;12.076;2023-07-13T03:49:10;2.20;;;2.10;;
15228;SDS011;7717;47.792;12.076;2023-07-13T03:51:35;2.47;;;2.30;;
15228;SDS011;7717;47.792;12.076;2023-07-13T03:54:01;2.60;;;1.67;;
15228;SDS011;7717;47.792;12.076;2023-07-13T03:56:27;5.03;;;1.87;;
15228;SDS011;7717;47.792;12.076;2023-07-13T03:58:53;2.30;;;2.10;;
15228;SDS011;7717;47.792;12.076;2023-07-13T04:01:19;2.20;;;2.00;;
15228;SDS011;7717;47.792;12.076;2023-07-13T04:03:47;1.80;;;1.70;;
15228;SDS011;7717;47.792;12.076;2023-07-13T04:06:15;3.50;;;2.37;;
15228;SDS011;7717;47.792;12.076;2023-07-13T04:08:49;2.73;;;1.83;;
15228;SDS011;7717;47.792;12.076;2023-07-13T04:11:22;3.07;;;2.13;;
15228;SDS011;7717;47.792;12.076;2023-07-13T04:13:49;2.00;;;1.90;;
15228;SDS011;7717;47.792;12.076;2023-07-13T04:16:15;4.10;;;2.50;;
15228;SDS011;7717;47.792;12.076;2023-07-13T04:18:41;2.67;;;2.47;;
15228;SDS011;7717;47.792;12.076;2023-07-13T04:21:07;2.80;;;2.20;;
15228;SDS011;7717;47.792;12.076;2023-07-13T04:23:34;2.97;;;2.00;;
15228;SDS011;7717;47.792;12.076;2023-07-13T04:26:00;2.17;;;1.97;;
15228;SDS011;7717;47.792;12.076;2023-07-13T04:28:26;3.07;;;2.47;;
15228;SDS011;7717;47.792;12.076;2023-07-13T04:30:51;3.47;;;2.37;;
15228;SDS011;7717;47.792;12.076;2023-07-13T04:33:17;3.73;;;2.63;;
15228;SDS011;7717;47.792;12.076;2023-07-13T04:35:47;3.63;;;2.50;;
15228;SDS011;7717;47.792;12.076;2023-07-13T04:38:13;2.27;;;2.13;;
15228;SDS011;7717;47.792;12.076;2023-07-13T04:40:42;4.53;;;2.40;;
15228;SDS011;7717;47.792;12.076;2023-07-13T04:43:09;2.80;;;2.47;;
15228;SDS011;7717;47.792;12.076;2023-07-13T04:45:35;3.37;;;2.27;;
15228;SDS011;7717;47.792;12.076;2023-07-13T04:48:03;2.30;;;2.10;;
15228;SDS011;7717;47.792;12.076;2023-07-13T04:50:29;2.53;;;2.33;;
15228;SDS011;7717;47.792;12.076;2023-07-13T04:52:54;3.20;;;2.07;;
15228;SDS011;7717;47.792;12.076;2023-07-13T04:55:20;3.63;;;2.03;;
15228;SDS011;7717;47.792;12.076;2023-07-13T04:57:45;2.07;;;1.90;;
15228;SDS011;7717;47.792;12.076;2023-07-13T05:00:12;3.10;;;2.63;;
15228;SDS011;7717;47.792;12.076;2023-07-13T05:02:38;2.70;;;2.50;;
15228;SDS011;7717;47.792;12.076;2023-07-13T05:05:05;2.70;;;2.17;;
15228;SDS011;7717;47.792;12.076;2023-07-13T05:07:31;2.60;;;2.40;;
15228;SDS011;7717;47.792;12.076;2023-07-13T05:09:58;2.40;;;2.20;;
15228;SDS011;7717;47.792;12.076;2023-07-13T05:12:28;3.53;;;2.03;;
15228;SDS011;7717;47.792;12.076;2023-07-13T05:14:53;3.70;;;2.20;;
15228;SDS011;7717;47.792;12.076;2023-07-13T05:17:18;2.43;;;2.23;;
15228;SDS011;7717;47.792;12.076;2023-07-13T05:19:44;3.00;;;2.53;;
15228;SDS011;7717;47.792;12.076;2023-07-13T05:22:12;2.43;;;2.10;;
15228;SDS011;7717;47.792;12.076;2023-07-13T05:24:37;3.10;;;2.40;;
15228;SDS011;7717;47.792;12.076;2023-07-13T05:27:03;3.77;;;2.80;;
15228;SDS011;7717;47.792;12.076;2023-07-13T05:29:29;4.13;;;2.30;;
15228;SDS011;7717;47.792;12.076;2023-07-13T05:31:54;2.40;;;2.20;;
15228;SDS011;7717;47.792;12.076;2023-07-13T05:34:20;11.07;;;4.60;;
15228;SDS011;7717;47.792;12.076;2023-07-13T05:36:45;3.27;;;2.07;;
15228;SDS011;7717;47.792;12.076;2023-07-13T05:39:10;3.23;;;2.00;;
15228;SDS011;7717;47.792;12.076;2023-07-13T05:41:36;2.60;;;1.97;;
15228;SDS011;7717;47.792;12.076;2023-07-13T05:44:05;4.47;;;2.27;;
15228;SDS011;7717;47.792;12.076;2023-07-13T05:46:37;3.50;;;2.43;;
15228;SDS011;7717;47.792;12.076;2023-07-13T05:49:02;2.40;;;2.20;;
15228;SDS011;7717;47.792;12.076;2023-07-13T05:51:28;3.23;;;2.90;;
15228;SDS011;7717;47.792;12.076;2023-07-13T05:53:54;3.47;;;2.83;;
15228;SDS011;7717;47.792;12.076;2023-07-13T05:56:19;3.00;;;2.50;;
15228;SDS011;7717;47.792;12.076;2023-07-13T05:58:45;5.17;;;2.30;;
15228;SDS011;7717;47.792;12.076;2023-07-13T06:01:11;6.47;;;2.40;;
15228;SDS011;7717;47.792;12.076;2023-07-13T06:03:38;3.70;;;2.57;;
15228;SDS011;7717;47.792;12.076;2023-07-13T06:06:07;2.30;;;2.10;;
15228;SDS011;7717;47.792;12.076;2023-07-13T06:08:35;2.87;;;2.67;;
15228;SDS011;7717;47.792;12.076;2023-07-13T06:11:04;3.13;;;2.80;;
15228;SDS011;7717;47.792;12.076;2023-07-13T06:13:32;2.57;;;2.37;;
15228;SDS011;7717;47.792;12.076;2023-07-13T06:15:58;2.80;;;2.47;;
15228;SDS011;7717;47.792;12.076;2023-07-13T06:18:24;3.10;;;2.80;;
15228;SDS011;7717;47.792;12.076;2023-07-13T06:20:50;2.77;;;2.57;;
15228;SDS011;7717;47.792;12.076;2023-07-13T06:23:15;2.90;;;2.60;;
15228;SDS011;7717;47.792;12.076;2023-07-13T06:25:41;3.30;;;3.00;;
15228;SDS011;7717;47.792;12.076;2023-07-13T06:28:10;3.27;;;2.60;;
15228;SDS011;7717;47.792;12.076;2023-07-13T06:30:37;3.13;;;2.83;;
15228;SDS011;7717;47.792;12.076;2023-07-13T06:33:04;3.27;;;2.97;;
15228;SDS011;7717;47.792;12.076;2023-07-13T06:35:29;3.50;;;3.20;;
15228;SDS011;7717;47.792;12.076;2023-07-13T06:37:55;4.33;;;2.90;;
15228;SDS011;7717;47.792;12.076;2023-07-13T06:40:20;3.37;;;3.07;;
15228;SDS011;7717;47.792;12.076;2023-07-13T06:42:45;2.90;;;2.70;;
15228;SDS011;7717;47.792;12.076;2023-07-13T06:45:11;2.90;;;2.70;;
15228;SDS011;7717;47.792;12.076;2023-07-13T06:47:40;4.37;;;2.70;;
15228;SDS011;7717;47.792;12.076;2023-07-13T06:50:08;3.73;;;2.50;;
15228;SDS011;7717;47.792;12.076;2023-07-13T06:52:39;3.50;;;3.30;;
15228;SDS011;7717;47.792;12.076;2023-07-13T06:55:04;3.00;;;2.63;;
15228;SDS011;7717;47.792;12.076;2023-07-13T06:57:30;3.40;;;2.93;;
15228;SDS011;7717;47.792;12.076;2023-07-13T06:59:56;5.13;;;3.23;;
15228;SDS011;7717;47.792;12.076;2023-07-13T07:02:22;5.10;;;2.80;;
15228;SDS011;7717;47.792;12.076;2023-07-13T07:04:50;4.50;;;3.33;;
15228;SDS011;7717;47.792;12.076;2023-07-13T07:07:16;5.07;;;3.53;;
15228;SDS011;7717;47.792;12.076;2023-07-13T07:09:41;3.50;;;3.20;;
15228;SDS011;7717;47.792;12.076;2023-07-13T07:12:07;3.60;;;3.30;;
15228;SDS011;7717;47.792;12.076;2023-07-13T07:14:32;3.50;;;3.20;;
15228;SDS011;7717;47.792;12.076;2023-07-13T07:16:59;3.40;;;3.10;;
15228;SDS011;7717;47.792;12.076;2023-07-13T07:19:24;3.70;;;3.40;;
15228;SDS011;7717;47.792;12.076;2023-07-13T07:21:50;4.10;;;3.57;;
15228;SDS011;7717;47.792;12.076;2023-07-13T07:24:15;3.93;;;3.00;;
15228;SDS011;7717;47.792;12.076;2023-07-13T07:26:41;3.67;;;2.97;;
15228;SDS011;7717;47.792;12.076;2023-07-13T07:29:06;4.07;;;2.80;;
15228;SDS011;7717;47.792;12.076;2023-07-13T07:31:32;2.73;;;2.50;;
15228;SDS011;7717;47.792;12.076;2023-07-13T07:33:57;4.53;;;2.23;;
15228;SDS011;7717;47.792;12.076;2023-07-13T07:36:22;2.40;;;2.20;;
15228;SDS011;7717;47.792;12.076;2023-07-13T07:38:48;3.53;;;2.57;;
15228;SDS011;7717;47.792;12.076;2023-07-13T07:41:16;2.80;;;2.60;;
15228;SDS011;7717;47.792;12.076;2023-07-13T07:43:41;2.70;;;2.50;;
15228;SDS011;7717;47.792;12.076;2023-07-13T07:46:07;2.43;;;2.23;;
15228;SDS011;7717;47.792;12.076;2023-07-13T07:48:32;3.37;;;2.87;;
15228;SDS011;7717;47.792;12.076;2023-07-13T07:50:57;2.67;;;2.47;;
15228;SDS011;7717;47.792;12.076;2023-07-13T07:53:23;3.50;;;2.27;;
15228;SDS011;7717;47.792;12.076;2023-07-13T07:55:49;2.30;;;2.10;;
15228;SDS011;7717;47.792;12.076;2023-07-13T07:58:15;2.87;;;2.57;;
15228;SDS011;7717;47.792;12.076;2023-07-13T08:00:40;2.40;;;2.20;;
15228;SDS011;7717;47.792;12.076;2023-07-13T08:03:06;2.40;;;2.20;;
15228;SDS011;7717;47.792;12.076;2023-07-13T08:05:31;2.93;;;2.30;;
15228;SDS011;7717;47.792;12.076;2023-07-13T08:08:00;2.47;;;2.27;;
15228;SDS011;7717;47.792;12.076;2023-07-13T08:10:26;3.27;;;2.47;;
15228;SDS011;7717;47.792;12.076;2023-07-13T08:12:51;3.13;;;2.50;;
15228;SDS011;7717;47.792;12.076;2023-07-13T08:15:17;2.73;;;2.47;;
15228;SDS011;7717;47.792;12.076;2023-07-13T08:17:45;3.13;;;2.50;;
15228;SDS011;7717;47.792;12.076;2023-07-13T08:20:14;3.07;;;2.23;;
15228;SDS011;7717;47.792;12.076;2023-07-13T08:22:40;2.00;;;1.80;;
15228;SDS011;7717;47.792;12.076;2023-07-13T08:25:05;2.20;;;1.90;;
15228;SDS011;7717;47.792;12.076;2023-07-13T08:27:31;3.97;;;1.93;;
15228;SDS011;7717;47.792;12.076;2023-07-13T08:29:56;2.07;;;1.80;;
15228;SDS011;7717;47.792;12.076;2023-07-13T08:32:22;1.67;;;1.57;;
15228;SDS011;7717;47.792;12.076;2023-07-13T08:34:48;2.73;;;1.73;;
15228;SDS011;7717;47.792;12.076;2023-07-13T08:37:18;1.83;;;1.70;;
15228;SDS011;7717;47.792;12.076;2023-07-13T08:39:47;1.63;;;1.53;;
15228;SDS011;7717;47.792;12.076;2023-07-13T08:45:06;1.90;;;1.50;;
15228;SDS011;7717;47.792;12.076;2023-07-13T08:47:39;2.10;;;1.85;;
15228;SDS011;7717;47.792;12.076;2023-07-13T08:50:15;2.93;;;1.90;;
15228;SDS011;7717;47.792;12.076;2023-07-13T08:52:44;2.40;;;1.70;;
15228;SDS011;7717;47.792;12.076;2023-07-13T08:55:14;2.63;;;1.70;;
15228;SDS011;7717;47.792;12.076;2023-07-13T08:57:48;2.57;;;2.00;;
15228;SDS011;7717;47.792;12.076;2023-07-13T09:00:22;3.13;;;1.93;;
15228;SDS011;7717;47.792;12.076;2023-07-13T09:02:56;2.60;;;1.80;;
15228;SDS011;7717;47.792;12.076;2023-07-13T09:05:31;2.73;;;2.20;;
15228;SDS011;7717;47.792;12.076;2023-07-13T09:10:46;2.40;;;2.20;;
15228;SDS011;7717;47.792;12.076;2023-07-13T09:15:56;2.90;;;2.23;;
15228;SDS011;7717;47.792;12.076;2023-07-13T09:18:38;5.27;;;2.27;;
15228;SDS011;7717;47.792;12.076;2023-07-13T09:21:08;5.33;;;2.30;;
15228;SDS011;7717;47.792;12.076;2023-07-13T09:23:37;3.90;;;2.10;;
15228;SDS011;7717;47.792;12.076;2023-07-13T09:26:11;2.73;;;2.10;;
15228;SDS011;7717;47.792;12.076;2023-07-13T09:28:45;2.67;;;2.37;;
15228;SDS011;7717;47.792;12.076;2023-07-13T09:33:56;8.67;;;2.50;;
15228;SDS011;7717;47.792;12.076;2023-07-13T09:36:31;2.80;;;2.13;;
15228;SDS011;7717;47.792;12.076;2023-07-13T09:39:24;3.90;;;2.20;;
15228;SDS011;7717;47.792;12.076;2023-07-13T09:47:03;2.50;;;2.20;;
15228;SDS011;7717;47.792;12.076;2023-07-13T09:49:40;3.97;;;2.23;;
15228;SDS011;7717;47.792;12.076;2023-07-13T09:52:06;3.27;;;2.00;;
15228;SDS011;7717;47.792;12.076;2023-07-13T09:54:36;3.23;;;2.13;;
15228;SDS011;7717;47.792;12.076;2023-07-13T09:57:02;3.53;;;2.20;;
15228;SDS011;7717;47.792;12.076;2023-07-13T09:59:41;2.37;;;2.00;;
15228;SDS011;7717;47.792;12.076;2023-07-13T10:02:24;3.13;;;1.90;;
15228;SDS011;7717;47.792;12.076;2023-07-13T10:04:58;3.33;;;1.90;;
15228;SDS011;7717;47.792;12.076;2023-07-13T10:07:32;2.13;;;1.70;;
15228;SDS011;7717;47.792;12.076;2023-07-13T10:10:02;2.87;;;1.80;;
15228;SDS011;7717;47.792;12.076;2023-07-13T10:12:35;2.57;;;2.37;;
15228;SDS011;7717;47.792;12.076;2023-07-13T10:15:02;3.53;;;2.63;;
15228;SDS011;7717;47.792;12.076;2023-07-13T10:17:34;3.20;;;2.10;;
15228;SDS011;7717;47.792;12.076;2023-07-13T10:20:02;2.60;;;2.37;;
15228;SDS011;7717;47.792;12.076;2023-07-13T10:22:36;2.50;;;2.00;;
15228;SDS011;7717;47.792;12.076;2023-07-13T10:25:13;3.50;;;2.10;;
15228;SDS011;7717;47.792;12.076;2023-07-13T10:27:41;3.77;;;1.93;;
15228;SDS011;7717;47.792;12.076;2023-07-13T10:30:19;2.33;;;2.00;;
15228;SDS011;7717;47.792;12.076;2023-07-13T10:32:50;2.67;;;2.20;;
15228;SDS011;7717;47.792;12.076;2023-07-13T10:35:17;4.73;;;2.20;;
15228;SDS011;7717;47.792;12.076;2023-07-13T10:37:48;2.13;;;1.80;;
15228;SDS011;7717;47.792;12.076;2023-07-13T10:40:39;3.47;;;2.20;;
15228;SDS011;7717;47.792;12.076;2023-07-13T10:43:25;3.70;;;2.23;;
15228;SDS011;7717;47.792;12.076;2023-07-13T10:45:57;4.40;;;2.50;;
15228;SDS011;7717;47.792;12.076;2023-07-13T10:48:24;2.80;;;2.10;;
15228;SDS011;7717;47.792;12.076;2023-07-13T10:50:51;3.73;;;2.03;;
15228;SDS011;7717;47.792;12.076;2023-07-13T10:53:22;2.93;;;2.00;;
15228;SDS011;7717;47.792;12.076;2023-07-13T11:00:46;2.23;;;2.07;;
15228;SDS011;7717;47.792;12.076;2023-07-13T11:03:18;2.13;;;1.90;;
15228;SDS011;7717;47.792;12.076;2023-07-13T11:05:51;2.30;;;2.10;;
15228;SDS011;7717;47.792;12.076;2023-07-13T11:08:37;2.40;;;2.20;;
15228;SDS011;7717;47.792;12.076;2023-07-13T11:13:59;5.57;;;2.53;;
15228;SDS011;7717;47.792;12.076;2023-07-13T11:21:28;4.03;;;2.97;;
15228;SDS011;7717;47.792;12.076;2023-07-13T11:24:03;4.63;;;2.77;;
15228;SDS011;7717;47.792;12.076;2023-07-13T11:31:59;2.40;;;2.20;;
15228;SDS011;7717;47.792;12.076;2023-07-13T11:34:33;4.43;;;2.53;;
15228;SDS011;7717;47.792;12.076;2023-07-13T11:37:08;2.93;;;2.27;;
15228;SDS011;7717;47.792;12.076;2023-07-13T11:39:38;2.67;;;2.43;;
15228;SDS011;7717;47.792;12.076;2023-07-13T11:42:08;4.67;;;2.70;;
15228;SDS011;7717;47.792;12.076;2023-07-13T11:44:41;4.17;;;2.50;;
15228;SDS011;7717;47.792;12.076;2023-07-13T11:47:10;2.53;;;2.37;;
15228;SDS011;7717;47.792;12.076;2023-07-13T11:49:48;3.83;;;2.57;;
15228;SDS011;7717;47.792;12.076;2023-07-13T11:52:18;3.40;;;2.53;;
15228;SDS011;7717;47.792;12.076;2023-07-13T11:54:54;2.57;;;2.37;;
15228;SDS011;7717;47.792;12.076;2023-07-13T11:57:25;3.50;;;1.97;;
15228;SDS011;7717;47.792;12.076;2023-07-13T11:59:59;4.37;;;2.20;;
15228;SDS011;7717;47.792;12.076;2023-07-13T12:02:30;3.90;;;2.50;;
15228;SDS011;7717;47.792;12.076;2023-07-13T12:04:59;2.60;;;2.40;;
15228;SDS011;7717;47.792;12.076;2023-07-13T12:07:31;2.40;;;2.07;;
15228;SDS011;7717;47.792;12.076;2023-07-13T12:10:17;2.37;;;1.70;;
15228;SDS011;7717;47.792;12.076;2023-07-13T12:12:47;3.27;;;2.17;;
15228;SDS011;7717;47.792;12.076;2023-07-13T12:15:23;3.07;;;2.10;;
15228;SDS011;7717;47.792;12.076;2023-07-13T12:17:54;2.60;;;2.30;;
15228;SDS011;7717;47.792;12.076;2023-07-13T12:20:23;3.67;;;1.90;;
15228;SDS011;7717;47.792;12.076;2023-07-13T12:22:51;2.37;;;1.73;;
15228;SDS011;7717;47.792;12.076;2023-07-13T12:25:17;1.90;;;1.80;;
15228;SDS011;7717;47.792;12.076;2023-07-13T12:27:47;2.45;;;2.25;;
15228;SDS011;7717;47.792;12.076;2023-07-13T12:30:25;2.90;;;2.57;;
15228;SDS011;7717;47.792;12.076;2023-07-13T12:33:01;3.40;;;2.03;;
15228;SDS011;7717;47.792;12.076;2023-07-13T12:35:43;2.65;;;2.45;;
15228;SDS011;7717;47.792;12.076;2023-07-13T12:38:12;3.38;;;3.17;;
15228;SDS011;7717;47.792;12.076;2023-07-13T12:40:38;2.90;;;2.17;;
15228;SDS011;7717;47.792;12.076;2023-07-13T12:43:11;2.95;;;2.47;;
15228;SDS011;7717;47.792;12.076;2023-07-13T12:45:38;3.30;;;2.90;;
15228;SDS011;7717;47.792;12.076;2023-07-13T12:48:19;2.70;;;2.30;;
15228;SDS011;7717;47.792;12.076;2023-07-13T12:50:48;3.30;;;3.10;;
15228;SDS011;7717;47.792;12.076;2023-07-13T12:53:19;2.22;;;2.03;;
15228;SDS011;7717;47.792;12.076;2023-07-13T12:55:47;2.35;;;1.95;;
15228;SDS011;7717;47.792;12.076;2023-07-13T13:01:09;2.80;;;2.20;;
15228;SDS011;7717;47.792;12.076;2023-07-13T13:03:45;3.00;;;2.30;;
15228;SDS011;7717;47.792;12.076;2023-07-13T13:08:47;2.08;;;1.77;;
15228;SDS011;7717;47.792;12.076;2023-07-13T13:11:18;2.05;;;1.83;;
15228;SDS011;7717;47.792;12.076;2023-07-13T13:13:45;2.95;;;1.90;;
15228;SDS011;7717;47.792;12.076;2023-07-13T13:16:21;2.42;;;1.98;;
15228;SDS011;7717;47.792;12.076;2023-07-13T13:18:48;3.85;;;1.80;;
15228;SDS011;7717;47.792;12.076;2023-07-13T13:21:15;2.17;;;1.90;;
15228;SDS011;7717;47.792;12.076;2023-07-13T13:23:45;1.85;;;1.75;;
15228;SDS011;7717;47.792;12.076;2023-07-13T13:26:12;2.15;;;1.95;;
15228;SDS011;7717;47.792;12.076;2023-07-13T13:28:40;2.22;;;2.03;;
15228;SDS011;7717;47.792;12.076;2023-07-13T13:31:09;2.50;;;1.90;;
15228;SDS011;7717;47.792;12.076;2023-07-13T13:33:38;3.40;;;2.13;;
15228;SDS011;7717;47.792;12.076;2023-07-13T13:36:14;2.63;;;2.15;;
15228;SDS011;7717;47.792;12.076;2023-07-13T13:38:43;2.40;;;2.17;;
15228;SDS011;7717;47.792;12.076;2023-07-13T13:41:10;3.10;;;1.80;;
15228;SDS011;7717;47.792;12.076;2023-07-13T13:43:38;3.42;;;1.80;;
15228;SDS011;7717;47.792;12.076;2023-07-13T13:46:05;2.78;;;1.80;;
15228;SDS011;7717;47.792;12.076;2023-07-13T13:48:38;2.17;;;1.40;;
15228;SDS011;7717;47.792;12.076;2023-07-13T13:51:15;2.78;;;1.60;;
15228;SDS011;7717;47.792;12.076;2023-07-13T13:53:42;2.60;;;1.42;;
15228;SDS011;7717;47.792;12.076;2023-07-13T13:56:08;2.30;;;1.20;;
15228;SDS011;7717;47.792;12.076;2023-07-13T13:58:34;2.30;;;1.40;;
15228;SDS011;7717;47.792;12.076;2023-07-13T14:01:00;2.17;;;1.48;;
15228;SDS011;7717;47.792;12.076;2023-07-13T14:03:25;1.52;;;1.30;;
15228;SDS011;7717;47.792;12.076;2023-07-13T14:05:53;1.67;;;1.42;;
15228;SDS011;7717;47.792;12.076;2023-07-13T14:08:21;1.58;;;1.10;;
15228;SDS011;7717;47.792;12.076;2023-07-13T14:10:47;1.52;;;1.38;;
15228;SDS011;7717;47.792;12.076;2023-07-13T14:13:19;1.95;;;1.10;;
15228;SDS011;7717;47.792;12.076;2023-07-13T14:15:46;1.30;;;1.20;;
15228;SDS011;7717;47.792;12.076;2023-07-13T14:18:13;1.38;;;1.20;;
15228;SDS011;7717;47.792;12.076;2023-07-13T14:20:43;2.08;;;1.25;;
15228;SDS011;7717;47.792;12.076;2023-07-13T14:23:14;2.90;;;1.70;;
15228;SDS011;7717;47.792;12.076;2023-07-13T14:25:41;1.48;;;1.30;;
15228;SDS011;7717;47.792;12.076;2023-07-13T14:30:47;2.38;;;1.45;;
15228;SDS011;7717;47.792;12.076;2023-07-13T14:33:17;2.15;;;1.30;;
15228;SDS011;7717;47.792;12.076;2023-07-13T14:35:43;1.95;;;1.30;;
15228;SDS011;7717;47.792;12.076;2023-07-13T14:38:13;2.75;;;1.10;;
15228;SDS011;7717;47.792;12.076;2023-07-13T14:40:42;2.03;;;1.10;;
15228;SDS011;7717;47.792;12.076;2023-07-13T14:43:14;2.50;;;1.33;;
15228;SDS011;7717;47.792;12.076;2023-07-13T14:45:42;2.33;;;1.38;;
15228;SDS011;7717;47.792;12.076;2023-07-13T14:48:13;1.42;;;1.33;;
15228;SDS011;7717;47.792;12.076;2023-07-13T14:50:41;2.25;;;1.20;;
15228;SDS011;7717;47.792;12.076;2023-07-13T14:53:09;2.17;;;1.60;;
15228;SDS011;7717;47.792;12.076;2023-07-13T14:55:35;2.20;;;1.30;;
15228;SDS011;7717;47.792;12.076;2023-07-13T14:58:01;2.00;;;1.20;;
15228;SDS011;7717;47.792;12.076;2023-07-13T15:00:26;1.20;;;1.20;;
15228;SDS011;7717;47.792;12.076;2023-07-13T15:02:54;1.90;;;1.63;;
15228;SDS011;7717;47.792;12.076;2023-07-13T15:05:23;2.85;;;1.10;;
15228;SDS011;7717;47.792;12.076;2023-07-13T15:07:52;1.63;;;0.90;;
15228;SDS011;7717;47.792;12.076;2023-07-13T15:12:44;1.70;;;1.30;;
15228;SDS011;7717;47.792;12.076;2023-07-13T15:15:10;2.00;;;1.30;;
15228;SDS011;7717;47.792;12.076;2023-07-13T15:17:39;1.48;;;1.33;;
15228;SDS011;7717;47.792;12.076;2023-07-13T15:22:52;1.30;;;1.20;;
15228;SDS011;7717;47.792;12.076;2023-07-13T15:25:29;1.85;;;1.70;;
15228;SDS011;7717;47.792;12.076;2023-07-13T15:27:56;3.03;;;1.40;;
15228;SDS011;7717;47.792;12.076;2023-07-13T15:30:24;2.25;;;1.88;;
15228;SDS011;7717;47.792;12.076;2023-07-13T15:32:52;1.90;;;1.20;;
15228;SDS011;7717;47.792;12.076;2023-07-13T15:35:24;5.40;;;1.70;;
15228;SDS011;7717;47.792;12.076;2023-07-13T15:37:51;1.40;;;1.30;;
15228;SDS011;7717;47.792;12.076;2023-07-13T15:40:18;2.63;;;1.50;;
15228;SDS011;7717;47.792;12.076;2023-07-13T15:42:46;1.55;;;1.08;;
15228;SDS011;7717;47.792;12.076;2023-07-13T15:45:16;1.48;;;1.30;;